Domov               UVHVVR             MKGP            O straneh              
ZDRAVSTVENO VARSTVO RASTLIN
  MREŽA AGROMET. POSTAJ
 ► PROGNOSTIČNA OBVESTILA
AGROMETEOROLOŠKI PODATKI -
ARSO
OBVLADOVANJE TVEGANJ ZARADI
NEUGODNIH VREMENSKIH RAZMER
  ► NARAVNE NESREČE
  ► SUŠA/MOČA
  ► NAMAKANJE
  ► ŽLED (gozdarstvo)
KARTOGRAFSKI PRIKAZI
SPLETNE POVEZAVE
PROJEKTI IN PUBLIKACIJE

AGROMETEOROLOŠKA MREŽA: VREMENSKE POSTAJE IN FENOLOŠKA OPAZOVANJA

Pregled podatkov za lokacijo Zimica, meteorološka postaja 27472

Pregled senzorjev na lokaciji

ID Ime Zadnja
vrednost
Datum
zadnje
spremembe
Tip
senzorja
1713 Temperatura 2 m (°C) 7,16 °C 11.12.2017 10:00 Generic -40 - +60 °C
1714 Relativna vlaga 2 m (% RH) 73,36 % RH 11.12.2017 10:00 Generic 0 - 100 %
1715 Padavine (mm) 0 mm 11.12.2017 10:00 Generic 0.2 mm

Pregled podatkov zadnjih 24 ur

Zap.
št.
Datum in čas Zimica
Padavine Relativna
vlaga
2
m
Temperatura
2
m
0 11.12.2017 10:00 0 73,36 7,16
1 11.12.2017 09:30 0 76,02 6,59
2 11.12.2017 09:00 0 78,14 6,03
3 11.12.2017 08:30 0 78,97 5,89
4 11.12.2017 08:00 0 86,57 3,44
5 11.12.2017 07:30 0 85,69 3,71
6 11.12.2017 07:00 0 85,49 4
7 11.12.2017 06:30 0 86,3 3,64
8 11.12.2017 06:00 0 84,42 3,49
9 11.12.2017 05:30 0 85,32 3,17
10 11.12.2017 05:00 0 85,32 3,03
11 11.12.2017 04:30 0 84,54 3,3
12 11.12.2017 04:00 0 84,76 3,17
13 11.12.2017 03:30 0 85,62 2,86
14 11.12.2017 03:00 0 84,91 2,93
15 11.12.2017 02:30 0 84,1 2,98
16 11.12.2017 02:00 0 83,25 2,88
17 11.12.2017 01:30 0 81,42 3,2
18 11.12.2017 01:00 0 82,44 2,91
19 11.12.2017 00:30 0 83,54 2,76
20 11.12.2017 00:00 0 83,69 2,61
21 10.12.2017 23:30 0 82,27 2,59
22 10.12.2017 23:00 0 80,95 2,61
23 10.12.2017 22:30 0 80,34 2,54
24 10.12.2017 22:00 0 79,63 2,47
25 10.12.2017 21:30 0 78,49 2,44
26 10.12.2017 21:00 0 77,83 2,37
27 10.12.2017 20:30 0 78,14 2,17
28 10.12.2017 20:00 0 78,75 1,9
29 10.12.2017 19:30 0 79,37 1,64
30 10.12.2017 19:00 0 77,24 1,86
31 10.12.2017 18:30 0 76,21 1,9
32 10.12.2017 18:00 0 76,24 1,81
33 10.12.2017 17:30 0 75,92 1,64
34 10.12.2017 17:00 0 73,5 1,59
35 10.12.2017 16:30 0 71,65 1,59
36 10.12.2017 16:00 0 72,58 1,39
37 10.12.2017 15:30 0 70,23 1,54
38 10.12.2017 15:00 0 71,97 1,34
39 10.12.2017 14:30 0 73,14 0,95
40 10.12.2017 14:00 0 73,31 0,61
41 10.12.2017 13:30 0 73,89 0,02
42 10.12.2017 13:00 0 73,24 -0,34
43 10.12.2017 12:30 0 70,99 -0,44
44 10.12.2017 12:00 0 68,72 -0,2
45 10.12.2017 11:30 0 69,18 -0,73
46 10.12.2017 11:00 0 69,5 -0,78
© 2011 Ministrstvo za kmetijstvo, gozdarstvo in prehrano. Vse pravice pridržane.